Time;durP1;ratioP1;P1;durP2;ratioP2;P2;SDS_P1;SDS_P2;PMS_P1;PMS_P2;Temp;Humidity;BMP_temperature;BMP_pressure;BME280_temperature;BME280_humidity;BME280_pressure;Samples;Min_cycle;Max_cycle;Signal;HPM_P1;HPM_P2
2022/01/09 00:01:51;;;;;;;0.60;0.40;;;11.80;65.20;;;;;;10564753;28;20031;-53
2022/01/09 00:06:51;;;;;;;0.50;0.40;;;11.90;65.50;;;;;;10522131;28;20411;-52
2022/01/09 00:11:52;;;;;;;0.75;0.40;;;11.90;65.00;;;;;;10521821;28;20543;-54
2022/01/09 00:16:53;;;;;;;0.80;0.43;;;11.90;65.00;;;;;;10539932;28;20111;-52
2022/01/09 00:21:54;;;;;;;0.85;0.40;;;11.90;65.20;;;;;;10521639;28;20104;-52
2022/01/09 00:26:54;;;;;;;0.73;0.52;;;11.80;65.30;;;;;;10539177;28;20039;-54
2022/01/09 00:31:55;;;;;;;0.60;0.30;;;11.90;65.10;;;;;;10539271;28;20031;-54
2022/01/09 00:36:56;;;;;;;0.80;0.50;;;11.90;65.10;;;;;;10521137;28;20028;-53
2022/01/09 00:41:57;;;;;;;0.40;0.40;;;11.80;65.20;;;;;;10538755;28;20031;-53
2022/01/09 00:47:00;;;;;;;0.77;0.50;;;11.80;65.40;;;;;;10538765;28;20024;-52
2022/01/09 00:52:00;;;;;;;0.60;0.40;;;11.90;65.30;;;;;;10538494;28;20028;-53
2022/01/09 00:57:01;;;;;;;0.93;0.40;;;11.90;65.30;;;;;;10557454;28;20023;-54
2022/01/09 01:02:03;;;;;;;0.50;0.38;;;11.80;65.20;;;;;;10542747;28;20119;-53
2022/01/09 01:07:04;;;;;;;0.82;0.50;;;11.90;65.10;;;;;;10503028;28;20049;-53
2022/01/09 01:12:05;;;;;;;0.45;0.40;;;11.90;65.10;;;;;;10502878;28;20081;-53
2022/01/09 01:17:07;;;;;;;0.55;0.30;;;11.90;65.80;;;;;;10537522;28;20032;-53
2022/01/09 01:22:08;;;;;;;0.70;0.40;;;11.90;65.30;;;;;;10519446;28;20035;-54
2022/01/09 01:27:09;;;;;;;0.85;0.55;;;11.90;65.30;;;;;;10537076;28;20040;-54
2022/01/09 01:32:10;;;;;;;0.52;0.30;;;11.90;65.10;;;;;;10502106;28;20035;-53
2022/01/09 01:37:11;;;;;;;0.32;0.30;;;11.90;65.20;;;;;;10536857;28;20103;-54
2022/01/09 01:42:11;;;;;;;0.45;0.30;;;11.80;65.30;;;;;;10536614;28;20362;-53
2022/01/09 01:47:19;;;;;;;0.63;0.30;;;11.80;65.40;;;;;;10518573;28;20031;-52
2022/01/09 01:52:27;;;;;;;0.40;0.30;;;11.90;65.30;;;;;;10485670;28;20042;-54
2022/01/09 01:57:30;;;;;;;0.60;0.45;;;11.90;65.20;;;;;;10525611;28;20027;-53
2022/01/09 02:02:31;;;;;;;0.35;0.30;;;11.90;65.30;;;;;;10537126;28;20503;-54
2022/01/09 02:07:32;;;;;;;0.60;0.40;;;11.90;65.50;;;;;;10535127;28;20056;-53
2022/01/09 02:12:35;;;;;;;1.05;0.95;;;11.80;65.40;;;;;;10500983;28;20031;-53
2022/01/09 02:17:35;;;;;;;0.85;0.45;;;11.90;65.30;;;;;;10518028;28;20032;-52
2022/01/09 02:22:37;;;;;;;0.85;0.40;;;11.90;65.40;;;;;;10517486;28;20115;-54
2022/01/09 02:27:38;;;;;;;1.17;0.50;;;11.80;65.50;;;;;;10517698;28;20436;-54
2022/01/09 02:32:39;;;;;;;1.35;0.40;;;11.80;65.50;;;;;;10517539;28;20120;-54
2022/01/09 02:37:40;;;;;;;0.80;0.40;;;11.90;65.30;;;;;;10517537;28;20111;-53
2022/01/09 02:42:41;;;;;;;1.48;0.40;;;11.90;65.30;;;;;;10535363;28;20514;-54
2022/01/09 02:47:42;;;;;;;1.27;0.75;;;11.90;65.30;;;;;;10535298;28;20406;-53
2022/01/09 02:52:52;;;;;;;1.23;0.40;;;11.80;65.40;;;;;;10517305;28;20051;-54
2022/01/09 02:57:58;;;;;;;1.25;0.43;;;11.80;65.50;;;;;;10528368;28;20025;-52
2022/01/09 03:02:59;;;;;;;1.63;0.45;;;11.90;65.40;;;;;;10550010;28;20024;-53
2022/01/09 03:08:00;;;;;;;0.70;0.40;;;11.90;65.50;;;;;;10517273;28;20028;-53
2022/01/09 03:13:03;;;;;;;1.30;0.30;;;11.80;65.50;;;;;;10534680;28;20035;-52
2022/01/09 03:18:04;;;;;;;0.68;0.40;;;11.90;65.60;;;;;;10519992;28;20455;-54
2022/01/09 03:23:05;;;;;;;0.90;0.40;;;11.90;65.50;;;;;;10523651;28;20122;-52
2022/01/09 03:28:06;;;;;;;2.92;0.80;;;11.90;65.40;;;;;;10541897;28;20490;-53
2022/01/09 03:33:07;;;;;;;1.27;0.55;;;11.90;65.50;;;;;;10523478;28;20123;-52
2022/01/09 03:38:07;;;;;;;0.82;0.35;;;11.80;65.60;;;;;;10523306;28;20173;-53
2022/01/09 03:43:08;;;;;;;0.65;0.47;;;11.90;65.70;;;;;;10541255;28;20036;-55
2022/01/09 03:48:09;;;;;;;0.32;0.32;;;11.90;65.50;;;;;;10522926;28;20383;-53
2022/01/09 03:53:12;;;;;;;0.60;0.30;;;11.90;65.50;;;;;;10541594;28;20111;-54
2022/01/09 03:58:13;;;;;;;1.60;0.38;;;11.90;65.50;;;;;;10552190;28;20024;-54
2022/01/09 04:03:13;;;;;;;0.75;0.40;;;11.80;65.70;;;;;;10493181;28;20032;-52
2022/01/09 04:08:14;;;;;;;0.85;0.47;;;11.90;65.60;;;;;;10498522;28;20397;-54
2022/01/09 04:13:15;;;;;;;1.08;0.40;;;11.90;65.50;;;;;;10497068;28;20094;-54
2022/01/09 04:18:18;;;;;;;1.02;0.47;;;11.90;65.60;;;;;;10480218;28;20028;-52
2022/01/09 04:23:20;;;;;;;0.73;0.50;;;11.80;65.70;;;;;;10463368;28;20035;-54
2022/01/09 04:28:20;;;;;;;1.63;0.30;;;11.90;65.80;;;;;;10478760;28;20044;-53
2022/01/09 04:33:21;;;;;;;1.30;0.45;;;11.90;65.50;;;;;;10479836;28;20036;-54
2022/01/09 04:38:22;;;;;;;0.95;0.40;;;11.90;65.60;;;;;;10497281;28;20151;-54
2022/01/09 04:43:23;;;;;;;1.05;0.50;;;11.80;65.70;;;;;;10479050;28;20040;-54
2022/01/09 04:48:23;;;;;;;1.75;0.60;;;11.80;65.80;;;;;;10479055;28;20439;-52
2022/01/09 04:53:24;;;;;;;1.08;0.95;;;11.90;65.50;;;;;;10478703;28;20116;-53
2022/01/09 04:58:25;;;;;;;1.25;0.47;;;11.90;65.50;;;;;;10541199;28;20107;-55
2022/01/09 05:03:25;;;;;;;1.05;0.35;;;11.90;65.50;;;;;;10549189;28;20042;-54
2022/01/09 05:08:26;;;;;;;1.00;0.40;;;11.90;65.60;;;;;;10503015;28;20024;-55
2022/01/09 05:13:27;;;;;;;1.52;0.60;;;11.80;65.80;;;;;;10537675;28;20502;-54
2022/01/09 05:18:27;;;;;;;3.25;0.85;;;11.90;65.60;;;;;;10519236;28;20099;-53
2022/01/09 05:23:28;;;;;;;1.27;0.32;;;11.90;65.60;;;;;;10519256;28;20020;-52
2022/01/09 05:28:29;;;;;;;1.75;0.65;;;11.80;65.60;;;;;;10537045;28;20048;-53
2022/01/09 05:33:30;;;;;;;3.05;0.50;;;11.80;65.80;;;;;;10537092;28;20077;-55
2022/01/09 05:38:31;;;;;;;2.42;0.77;;;11.90;65.70;;;;;;10518536;28;20099;-53
2022/01/09 05:43:32;;;;;;;1.23;0.55;;;11.90;65.60;;;;;;10518558;28;20039;-52
2022/01/09 05:48:33;;;;;;;0.85;0.35;;;11.90;65.70;;;;;;10518582;28;20039;-54
2022/01/09 05:53:34;;;;;;;0.65;0.40;;;11.90;65.90;;;;;;10518366;28;20024;-54
2022/01/09 05:58:35;;;;;;;1.58;0.70;;;11.80;65.80;;;;;;10568879;28;20042;-53
2022/01/09 06:03:36;;;;;;;1.60;0.80;;;11.90;65.60;;;;;;10545812;28;20103;-53
2022/01/09 06:08:37;;;;;;;1.00;0.50;;;11.90;65.70;;;;;;10517990;28;20488;-54
2022/01/09 06:13:37;;;;;;;0.93;0.32;;;11.90;65.70;;;;;;10536364;28;20024;-54
2022/01/09 06:18:38;;;;;;;1.13;0.75;;;11.80;65.80;;;;;;10535811;28;20032;-54
2022/01/09 06:23:39;;;;;;;0.82;0.43;;;11.90;65.70;;;;;;10517548;28;20036;-54
2022/01/09 06:28:40;;;;;;;0.73;0.30;;;11.90;65.60;;;;;;10517727;28;20721;-53
2022/01/09 06:33:40;;;;;;;0.63;0.52;;;11.90;65.70;;;;;;10517558;28;20084;-54
2022/01/09 06:38:41;;;;;;;0.80;0.40;;;11.80;65.80;;;;;;10517574;28;20035;-54
2022/01/09 06:43:44;;;;;;;0.93;0.47;;;11.80;65.70;;;;;;10535360;28;20036;-52
2022/01/09 06:48:44;;;;;;;3.85;0.60;;;11.90;65.60;;;;;;10500643;28;20460;-54
2022/01/09 06:53:45;;;;;;;2.30;0.57;;;11.90;65.50;;;;;;10540052;28;20108;-54
2022/01/09 06:58:46;;;;;;;2.45;0.65;;;11.90;65.40;;;;;;10577510;28;20110;-54
2022/01/09 07:03:47;;;;;;;1.25;0.40;;;11.90;65.50;;;;;;10532983;28;20099;-55
2022/01/09 07:08:47;;;;;;;2.00;0.57;;;11.90;65.60;;;;;;10524650;28;20032;-53
2022/01/09 07:13:48;;;;;;;1.63;0.50;;;11.90;65.50;;;;;;10507646;28;20024;-53
2022/01/09 07:18:49;;;;;;;0.90;0.30;;;12.00;65.50;;;;;;10542213;28;20115;-54
2022/01/09 07:23:49;;;;;;;1.35;0.50;;;11.90;65.50;;;;;;10541985;28;20066;-54
2022/01/09 07:28:50;;;;;;;0.40;0.30;;;12.00;65.50;;;;;;10523864;28;20055;-54
2022/01/09 07:33:51;;;;;;;2.42;0.57;;;12.00;65.40;;;;;;10541684;28;20041;-55
2022/01/09 07:38:51;;;;;;;2.38;0.43;;;11.90;65.50;;;;;;10540129;28;20108;-53
2022/01/09 07:43:52;;;;;;;1.33;0.65;;;11.90;65.60;;;;;;10518893;28;20028;-53
2022/01/09 07:48:53;;;;;;;1.80;0.77;;;12.00;65.40;;;;;;10522668;28;20032;-53
2022/01/09 07:53:53;;;;;;;0.50;0.38;;;11.90;65.40;;;;;;10540908;28;20040;-52
2022/01/09 07:58:54;;;;;;;2.13;0.60;;;11.90;65.60;;;;;;10541317;28;20028;-54
2022/01/09 08:03:55;;;;;;;0.90;0.40;;;11.90;65.50;;;;;;10530215;28;20080;-54
2022/01/09 08:08:56;;;;;;;1.25;0.60;;;11.90;65.40;;;;;;10540235;28;20063;-53
2022/01/09 08:13:56;;;;;;;1.27;0.40;;;12.00;65.40;;;;;;10540152;28;20039;-52
2022/01/09 08:18:57;;;;;;;0.73;0.30;;;11.90;65.50;;;;;;10539692;28;20042;-53
2022/01/09 08:23:58;;;;;;;1.52;0.63;;;11.90;65.60;;;;;;10539688;28;20101;-53
2022/01/09 08:28:59;;;;;;;1.77;0.50;;;11.90;65.70;;;;;;10539452;28;20059;-54
2022/01/09 08:33:59;;;;;;;0.52;0.35;;;11.80;65.80;;;;;;10539268;28;20036;-54
2022/01/09 08:39:02;;;;;;;1.23;0.40;;;11.80;65.90;;;;;;10538919;28;20123;-53
2022/01/09 08:44:05;;;;;;;1.08;0.40;;;11.90;65.80;;;;;;10521513;28;20383;-54
2022/01/09 08:49:05;;;;;;;2.10;0.68;;;11.90;65.80;;;;;;10520769;28;20036;-53
2022/01/09 08:54:06;;;;;;;0.85;0.40;;;11.80;65.80;;;;;;10503694;28;20065;-54
2022/01/09 08:59:07;;;;;;;1.00;0.30;;;11.90;65.80;;;;;;10575849;28;20114;-53
2022/01/09 09:04:08;;;;;;;1.83;0.55;;;11.90;65.80;;;;;;10525084;28;20024;-53
2022/01/09 09:09:10;;;;;;;1.73;0.50;;;11.90;65.90;;;;;;10519859;28;20066;-54
2022/01/09 09:14:11;;;;;;;1.27;0.30;;;11.80;65.90;;;;;;10519543;28;20024;-55
2022/01/09 09:19:11;;;;;;;1.02;0.60;;;11.80;66.10;;;;;;10537373;28;20476;-52
2022/01/09 09:24:13;;;;;;;1.13;0.60;;;11.80;66.10;;;;;;10537251;28;20408;-54
2022/01/09 09:29:13;;;;;;;0.93;0.43;;;11.80;66.10;;;;;;10537059;28;20365;-54
2022/01/09 09:34:14;;;;;;;0.55;0.35;;;11.80;66.20;;;;;;10537372;28;20032;-54
2022/01/09 09:39:15;;;;;;;0.60;0.40;;;11.80;66.40;;;;;;10536859;28;20044;-53
2022/01/09 09:44:15;;;;;;;1.00;0.40;;;11.80;66.50;;;;;;10501738;28;20016;-52
2022/01/09 09:49:17;;;;;;;0.30;0.30;;;11.80;66.60;;;;;;10536383;28;20455;-53
2022/01/09 09:54:18;;;;;;;2.78;0.47;;;11.70;66.60;;;;;;10518376;28;20035;-54
2022/01/09 09:59:28;;;;;;;0.63;0.40;;;11.70;66.50;;;;;;10557060;28;20460;-53
2022/01/09 10:04:28;;;;;;;0.52;0.45;;;11.70;66.60;;;;;;10520776;28;20438;-54
2022/01/09 10:09:29;;;;;;;0.75;0.30;;;11.70;66.60;;;;;;10518519;28;20111;-53
2022/01/09 10:14:33;;;;;;;1.67;0.70;;;11.70;66.60;;;;;;10517884;28;20036;-54
2022/01/09 10:20:19;;;;;;;0.88;0.30;;;11.60;66.60;;;;;;10517707;28;20024;-53
2022/01/09 10:25:40;;;;;;;1.40;0.60;;;11.70;66.60;;;;;;10535396;28;20493;-54
2022/01/09 10:30:52;;;;;;;1.98;0.40;;;11.70;66.50;;;;;;10525949;28;20028;-54
2022/01/09 10:35:53;;;;;;;0.73;0.50;;;11.80;66.30;;;;;;10526120;28;20027;-54
2022/01/09 10:40:57;;;;;;;1.55;0.60;;;11.80;66.30;;;;;;10526017;28;20420;-54
2022/01/09 10:45:59;;;;;;;1.77;0.52;;;11.80;66.30;;;;;;10543475;28;20048;-53
2022/01/09 10:51:03;;;;;;;1.52;0.32;;;11.80;66.50;;;;;;10525609;28;20039;-53
2022/01/09 10:56:14;;;;;;;1.85;0.82;;;11.80;66.50;;;;;;10536786;28;20035;-54
2022/01/09 11:01:26;;;;;;;0.90;0.40;;;11.80;66.50;;;;;;10572887;28;20024;-54
2022/01/09 11:06:32;;;;;;;1.38;0.40;;;11.80;66.50;;;;;;10542923;28;20036;-54
2022/01/09 11:11:37;;;;;;;1.13;0.30;;;11.80;66.60;;;;;;10542656;28;20400;-53
2022/01/09 11:16:42;;;;;;;1.73;0.77;;;11.80;67.30;;;;;;10542535;28;20028;-54
2022/01/09 11:21:46;;;;;;;1.13;0.40;;;11.80;67.50;;;;;;10507885;28;20028;-51
2022/01/09 11:27:09;;;;;;;1.23;0.60;;;11.90;67.50;;;;;;10522659;28;20040;-52
2022/01/09 11:32:44;;;;;;;2.00;0.30;;;11.90;67.30;;;;;;10523377;28;20035;-55
2022/01/09 11:38:22;;;;;;;0.80;0.40;;;11.90;67.30;;;;;;10481895;28;20396;-53
2022/01/09 11:43:23;;;;;;;1.42;0.45;;;11.80;67.40;;;;;;10522942;28;20032;-53
2022/01/09 11:48:50;;;;;;;0.93;0.40;;;11.80;67.50;;;;;;10538926;28;20031;-53
2022/01/09 11:54:09;;;;;;;1.55;0.45;;;11.80;67.60;;;;;;10521517;28;20028;-54
2022/01/09 11:59:20;;;;;;;0.85;0.40;;;12.00;67.20;;;;;;10576174;28;20110;-53
2022/01/09 12:09:45;;;;;;;1.80;0.40;;;11.90;67.40;;;;;;10538351;28;20070;-54
2022/01/09 12:14:54;;;;;;;0.55;0.30;;;11.80;68.10;;;;;;10537872;28;20028;-54
2022/01/09 12:20:07;;;;;;;1.70;0.70;;;11.80;67.50;;;;;;10519944;28;20052;-54
2022/01/09 12:25:35;;;;;;;0.73;0.50;;;11.80;67.60;;;;;;10483614;28;1085253;-53
2022/01/09 12:30:44;;;;;;;0.50;0.43;;;11.90;67.40;;;;;;10525827;28;20130;-54
2022/01/09 12:35:55;;;;;;;1.42;0.60;;;11.90;67.30;;;;;;10539209;28;20053;-54
2022/01/09 12:41:04;;;;;;;0.50;0.35;;;11.90;67.40;;;;;;10539079;28;20024;-54
2022/01/09 12:46:19;;;;;;;1.70;0.40;;;11.80;67.50;;;;;;10538841;28;20024;-54
2022/01/09 12:51:20;;;;;;;0.73;0.32;;;11.80;67.70;;;;;;10537777;28;20438;-54
2022/01/09 12:56:27;;;;;;;2.47;0.60;;;11.80;67.80;;;;;;10552299;28;20023;-52
2022/01/09 13:01:32;;;;;;;1.10;0.40;;;11.80;67.90;;;;;;10565982;28;20362;-54
2022/01/09 13:06:36;;;;;;;2.47;0.50;;;11.70;68.00;;;;;;10520293;28;20431;-53
2022/01/09 13:11:36;;;;;;;1.27;0.47;;;11.70;68.50;;;;;;10519932;28;20055;-54
2022/01/09 13:16:37;;;;;;;1.70;0.50;;;11.70;67.70;;;;;;10537598;28;20111;-53
2022/01/09 13:21:42;;;;;;;1.65;0.30;;;11.80;67.50;;;;;;10537526;28;20063;-54
2022/01/09 13:26:48;;;;;;;1.73;0.73;;;11.80;67.50;;;;;;10537206;28;20040;-54
2022/01/09 13:31:52;;;;;;;0.82;0.50;;;11.80;67.50;;;;;;10519389;28;20123;-54
2022/01/09 13:36:53;;;;;;;0.68;0.43;;;11.80;67.50;;;;;;10537211;28;20035;-54
2022/01/09 13:42:06;;;;;;;0.80;0.45;;;11.70;67.60;;;;;;10518633;28;20040;-54
2022/01/09 13:47:17;;;;;;;1.02;0.60;;;11.70;67.60;;;;;;10518695;28;20317;-52
2022/01/09 13:52:21;;;;;;;1.13;0.52;;;11.70;67.60;;;;;;10519542;28;20035;-54
2022/01/09 13:57:25;;;;;;;0.75;0.40;;;11.70;67.70;;;;;;10558589;28;20076;-54
2022/01/09 14:02:38;;;;;;;1.13;0.65;;;11.70;67.70;;;;;;10555726;28;20032;-54
2022/01/09 14:07:44;;;;;;;1.27;0.50;;;11.70;67.70;;;;;;10536018;28;20036;-53
2022/01/09 14:12:46;;;;;;;1.40;0.40;;;11.70;67.70;;;;;;10518987;28;20377;-53
2022/01/09 14:17:53;;;;;;;2.30;0.60;;;11.70;67.80;;;;;;10518197;28;20032;-54
2022/01/09 14:22:57;;;;;;;1.40;0.60;;;11.70;67.80;;;;;;10517732;28;20051;-54
2022/01/09 14:28:02;;;;;;;2.72;0.47;;;11.70;67.70;;;;;;10535363;28;20105;-54
2022/01/09 14:33:17;;;;;;;1.55;0.38;;;11.70;67.70;;;;;;10517787;28;20036;-53
2022/01/09 14:38:31;;;;;;;0.70;0.40;;;11.60;67.70;;;;;;10517579;28;20077;-53
2022/01/09 14:43:36;;;;;;;1.15;0.50;;;11.70;67.80;;;;;;10517185;28;20029;-53
2022/01/09 14:48:39;;;;;;;0.77;0.30;;;11.60;67.80;;;;;;10500723;28;20051;-54
2022/01/09 14:53:42;;;;;;;0.55;0.30;;;11.60;67.80;;;;;;10534992;28;20446;-54
2022/01/09 14:58:43;;;;;;;2.53;0.88;;;11.70;67.70;;;;;;10550800;28;20480;-54
2022/01/09 15:03:44;;;;;;;1.10;0.40;;;11.70;67.70;;;;;;10525674;28;20032;-54
2022/01/09 15:08:46;;;;;;;2.55;0.57;;;11.70;67.70;;;;;;10535286;28;20028;-54
2022/01/09 15:13:47;;;;;;;1.98;0.73;;;11.60;67.60;;;;;;10519712;28;20075;-53
2022/01/09 15:18:47;;;;;;;1.30;0.73;;;11.70;67.70;;;;;;10524164;28;20032;-53
2022/01/09 15:23:48;;;;;;;0.90;0.50;;;11.70;67.60;;;;;;10541999;28;20257;-54
2022/01/09 15:28:49;;;;;;;1.95;0.50;;;11.80;67.30;;;;;;10523815;28;20111;-53
2022/01/09 15:33:49;;;;;;;0.75;0.30;;;11.80;67.20;;;;;;10523685;28;20073;-54
2022/01/09 15:38:50;;;;;;;1.63;0.40;;;11.80;67.10;;;;;;10523254;28;20046;-54
2022/01/09 15:43:51;;;;;;;0.80;0.40;;;11.80;67.10;;;;;;10523418;28;20032;-53
2022/01/09 15:48:52;;;;;;;0.47;0.38;;;11.80;67.10;;;;;;10541122;28;20028;-54
2022/01/09 15:53:53;;;;;;;1.40;0.40;;;11.80;67.20;;;;;;10540985;28;20103;-53
2022/01/09 15:58:56;;;;;;;1.20;0.63;;;11.70;67.30;;;;;;10557919;28;20432;-54
2022/01/09 16:03:57;;;;;;;0.77;0.30;;;11.70;67.40;;;;;;10530243;28;20325;-55
2022/01/09 16:09:05;;;;;;;0.65;0.38;;;11.70;67.50;;;;;;10540544;28;20161;-54
2022/01/09 16:14:07;;;;;;;0.98;0.40;;;11.70;67.40;;;;;;10540710;28;20035;-53
2022/01/09 16:19:08;;;;;;;0.32;0.30;;;11.80;67.20;;;;;;10521967;28;20028;-54
2022/01/09 16:24:08;;;;;;;1.80;0.65;;;11.80;67.00;;;;;;10520359;28;20522;-54
2022/01/09 16:29:14;;;;;;;0.95;0.40;;;11.80;67.00;;;;;;10521788;28;20028;-54
2022/01/09 16:34:15;;;;;;;1.15;0.40;;;11.80;66.90;;;;;;10539930;28;20028;-54
2022/01/09 16:39:16;;;;;;;1.05;0.40;;;11.90;66.90;;;;;;10520364;28;20092;-53
2022/01/09 16:44:16;;;;;;;2.88;0.70;;;11.80;66.90;;;;;;10520297;28;20028;-54
2022/01/09 16:49:17;;;;;;;1.95;0.50;;;11.80;67.00;;;;;;10520615;28;20039;-54
2022/01/09 16:54:18;;;;;;;1.08;0.57;;;11.80;67.10;;;;;;10538697;28;20099;-53
2022/01/09 16:59:19;;;;;;;0.60;0.40;;;11.80;67.00;;;;;;10559002;28;20038;-54
2022/01/09 17:04:20;;;;;;;2.00;0.50;;;11.80;66.80;;;;;;10523840;28;20105;-53
2022/01/09 17:09:21;;;;;;;1.92;0.50;;;11.80;66.80;;;;;;10538279;28;20124;-53
2022/01/09 17:14:21;;;;;;;1.17;0.40;;;11.80;67.50;;;;;;10537863;28;20085;-54
2022/01/09 17:19:22;;;;;;;0.55;0.30;;;11.80;67.00;;;;;;10537504;28;20031;-54
2022/01/09 17:24:23;;;;;;;1.67;0.73;;;11.70;67.00;;;;;;10537232;28;20622;-54
2022/01/09 17:29:23;;;;;;;1.33;0.70;;;11.80;66.80;;;;;;10519241;28;20028;-54
2022/01/09 17:34:25;;;;;;;1.73;0.30;;;11.80;66.70;;;;;;10537247;28;20028;-54
2022/01/09 17:39:25;;;;;;;1.48;0.60;;;11.80;66.70;;;;;;10537137;28;20055;-54
2022/01/09 17:44:26;;;;;;;1.63;0.57;;;11.80;66.70;;;;;;10518805;28;20527;-53
2022/01/09 17:49:27;;;;;;;1.20;0.55;;;11.80;66.90;;;;;;10518998;28;20032;-54
2022/01/09 17:54:28;;;;;;;0.77;0.40;;;11.80;67.00;;;;;;10518550;28;20119;-54
2022/01/09 17:59:32;;;;;;;1.30;0.63;;;11.70;67.00;;;;;;10576686;28;20026;-55
2022/01/09 18:04:32;;;;;;;1.27;0.50;;;11.80;66.80;;;;;;10538850;28;20024;-54
2022/01/09 18:09:33;;;;;;;2.10;0.73;;;11.90;66.70;;;;;;10518054;28;20122;-53
2022/01/09 18:14:34;;;;;;;1.30;0.40;;;11.90;66.50;;;;;;10518503;28;20042;-54
2022/01/09 18:19:34;;;;;;;1.98;0.50;;;11.90;66.40;;;;;;10517890;28;20045;-54
2022/01/09 18:24:35;;;;;;;0.82;0.52;;;11.90;66.50;;;;;;10517574;28;20131;-54
2022/01/09 18:29:36;;;;;;;0.68;0.43;;;11.90;66.50;;;;;;10517775;28;20150;-54
2022/01/09 18:34:37;;;;;;;1.45;0.52;;;11.80;66.60;;;;;;10517581;28;20031;-53
2022/01/09 18:39:37;;;;;;;1.77;0.93;;;11.90;66.60;;;;;;10517573;28;20025;-52
2022/01/09 18:44:39;;;;;;;0.52;0.38;;;11.90;66.50;;;;;;10535498;28;20031;-53
2022/01/09 18:49:40;;;;;;;0.57;0.50;;;11.90;66.60;;;;;;10540620;28;20030;-53
2022/01/09 18:54:40;;;;;;;1.67;0.68;;;11.80;66.70;;;;;;10525500;28;20084;-55
2022/01/09 18:59:41;;;;;;;1.02;0.40;;;11.80;66.70;;;;;;10567283;28;20083;-54
2022/01/09 19:04:42;;;;;;;0.98;0.45;;;11.90;66.50;;;;;;10525583;28;20027;-54
2022/01/09 19:09:43;;;;;;;0.93;0.70;;;11.90;66.60;;;;;;10542990;28;20169;-53
2022/01/09 19:14:44;;;;;;;1.52;0.57;;;11.90;66.60;;;;;;10542554;28;20373;-54
2022/01/09 19:19:45;;;;;;;0.68;0.43;;;11.80;66.70;;;;;;10542500;28;20024;-52
2022/01/09 19:24:45;;;;;;;2.05;1.02;;;11.90;66.60;;;;;;10524089;28;20132;-54
2022/01/09 19:29:47;;;;;;;1.15;0.63;;;11.90;66.50;;;;;;10524269;28;20111;-54
2022/01/09 19:34:48;;;;;;;1.13;0.50;;;11.80;66.60;;;;;;10541926;28;20020;-54
2022/01/09 19:39:49;;;;;;;0.47;0.40;;;11.80;66.70;;;;;;10542120;28;20039;-53
2022/01/09 19:44:49;;;;;;;2.67;0.60;;;11.80;66.70;;;;;;10523452;28;20150;-54
2022/01/09 19:49:50;;;;;;;0.98;0.60;;;11.90;66.60;;;;;;10523185;28;20388;-54
2022/01/09 19:54:51;;;;;;;1.75;0.60;;;11.90;66.60;;;;;;10524197;28;20120;-54
2022/01/09 19:59:51;;;;;;;2.20;0.70;;;11.80;66.60;;;;;;10564235;28;20020;-54
2022/01/09 20:04:54;;;;;;;1.55;0.50;;;11.80;66.70;;;;;;10540772;28;20106;-54
2022/01/09 20:09:55;;;;;;;0.75;0.45;;;11.90;66.50;;;;;;10522681;28;20480;-53
2022/01/09 20:14:58;;;;;;;3.05;0.73;;;11.90;66.50;;;;;;10540247;28;20036;-54
2022/01/09 20:20:00;;;;;;;1.23;0.90;;;11.80;66.50;;;;;;10540156;28;20035;-53
2022/01/09 20:25:02;;;;;;;1.17;0.57;;;11.80;66.50;;;;;;10521810;28;20045;-53
2022/01/09 20:30:11;;;;;;;1.70;0.70;;;11.80;66.40;;;;;;10539670;28;20506;-53
2022/01/09 20:35:12;;;;;;;1.33;0.60;;;11.90;66.30;;;;;;10522060;28;20032;-54
2022/01/09 20:40:14;;;;;;;1.48;0.80;;;11.90;66.20;;;;;;10521134;28;20495;-54
2022/01/09 20:45:15;;;;;;;1.42;0.80;;;11.80;66.30;;;;;;10539195;28;20448;-54
2022/01/09 20:50:16;;;;;;;0.82;0.60;;;11.80;66.30;;;;;;10504127;28;20034;-53
2022/01/09 20:55:17;;;;;;;3.75;1.20;;;11.90;66.10;;;;;;10525552;28;20104;-53
2022/01/09 21:00:17;;;;;;;1.55;0.68;;;11.90;66.10;;;;;;10541346;28;20024;-55
2022/01/09 21:05:18;;;;;;;1.63;1.17;;;11.90;66.10;;;;;;10520292;28;20037;-54
2022/01/09 21:10:19;;;;;;;2.15;1.23;;;11.90;66.20;;;;;;10537332;28;20501;-53
2022/01/09 21:15:22;;;;;;;1.92;0.82;;;11.90;66.00;;;;;;10520051;28;20582;-54
2022/01/09 21:20:23;;;;;;;1.80;1.00;;;11.90;66.10;;;;;;10538085;28;20036;-54
2022/01/09 21:25:26;;;;;;;2.17;0.90;;;11.80;66.10;;;;;;10519230;28;20048;-54
2022/01/09 21:30:28;;;;;;;2.25;1.15;;;11.90;66.10;;;;;;10537388;28;20133;-53
2022/01/09 21:35:29;;;;;;;2.03;1.17;;;11.90;66.00;;;;;;10519220;28;20559;-53
2022/01/09 21:40:30;;;;;;;2.70;1.33;;;11.90;66.00;;;;;;10536893;28;20035;-54
2022/01/09 21:45:31;;;;;;;1.83;1.08;;;11.90;66.00;;;;;;10536839;28;20022;-53
2022/01/09 21:50:32;;;;;;;2.10;0.95;;;11.90;65.90;;;;;;10518800;28;20081;-54
2022/01/09 21:55:33;;;;;;;2.20;1.30;;;11.90;65.90;;;;;;10543588;28;20038;-54
2022/01/09 22:00:34;;;;;;;1.65;0.90;;;11.90;66.00;;;;;;10572217;28;20032;-54
2022/01/09 22:05:35;;;;;;;1.70;1.20;;;11.90;66.00;;;;;;10518535;28;20028;-54
2022/01/09 22:10:37;;;;;;;2.10;1.20;;;11.90;65.80;;;;;;10501776;28;20166;-54
2022/01/09 22:15:39;;;;;;;3.17;1.00;;;11.90;65.90;;;;;;10518443;28;20429;-54
2022/01/09 22:20:40;;;;;;;2.72;1.20;;;11.80;66.00;;;;;;10536865;28;20058;-53
2022/01/09 22:25:42;;;;;;;3.15;1.90;;;11.90;65.90;;;;;;10544344;28;20051;-54
2022/01/09 22:30:43;;;;;;;1.58;1.30;;;11.90;65.90;;;;;;10544954;28;20048;-54
2022/01/09 22:35:44;;;;;;;2.28;1.10;;;11.90;65.90;;;;;;10509714;28;20035;-54
2022/01/09 22:40:45;;;;;;;3.75;1.13;;;11.80;66.00;;;;;;10525859;28;20039;-54
2022/01/09 22:45:46;;;;;;;2.63;1.35;;;11.90;66.40;;;;;;10544023;28;20025;-55
2022/01/09 22:50:48;;;;;;;1.77;1.00;;;11.90;65.80;;;;;;10543683;28;20119;-53
2022/01/09 22:55:49;;;;;;;2.53;1.17;;;11.90;65.90;;;;;;10552831;28;20073;-53
2022/01/09 23:00:51;;;;;;;2.17;1.30;;;11.90;65.80;;;;;;10558756;28;20103;-53
2022/01/09 23:05:51;;;;;;;3.03;1.88;;;11.90;65.80;;;;;;10525068;28;20426;-54
2022/01/09 23:10:55;;;;;;;1.80;1.20;;;11.90;65.80;;;;;;10525308;28;20111;-54
2022/01/09 23:15:55;;;;;;;1.50;0.90;;;11.90;65.80;;;;;;10508059;28;20020;-54
2022/01/09 23:20:56;;;;;;;2.30;1.17;;;12.10;65.20;;;;;;10524299;28;20498;-54
2022/01/09 23:25:57;;;;;;;1.80;0.93;;;12.50;64.00;;;;;;10524635;28;20040;-54
2022/01/09 23:30:58;;;;;;;4.18;1.50;;;12.80;63.00;;;;;;10542261;28;20112;-54
2022/01/09 23:35:59;;;;;;;2.80;1.30;;;12.90;62.50;;;;;;10523325;28;20162;-54
2022/01/09 23:41:00;;;;;;;2.50;1.00;;;13.00;62.10;;;;;;10523584;28;20040;-54
2022/01/09 23:46:00;;;;;;;2.47;1.30;;;13.20;61.80;;;;;;10523562;28;20028;-53
2022/01/09 23:51:01;;;;;;;2.63;1.42;;;13.30;61.70;;;;;;10523333;28;20035;-54
2022/01/09 23:56:02;;;;;;;2.70;1.30;;;13.30;61.40;;;;;;10534120;28;20028;-55
